createdAt,value
2018-03-16T00:01:05.084Z,89.57
2018-03-16T00:03:32.911Z,89.37
2018-03-16T00:06:00.788Z,89.65
2018-03-16T00:08:28.514Z,89.72
2018-03-16T00:10:56.201Z,89.42
2018-03-16T00:13:24.019Z,89.61
2018-03-16T00:15:51.596Z,89.20
2018-03-16T00:18:19.232Z,88.85
2018-03-16T00:20:46.821Z,88.52
2018-03-16T00:23:14.506Z,89.13
2018-03-16T00:25:42.463Z,89.50
2018-03-16T00:28:10.141Z,89.50
2018-03-16T00:30:37.955Z,91.05
2018-03-16T00:33:05.628Z,91.16
2018-03-16T00:35:33.406Z,92.43
2018-03-16T00:38:01.058Z,91.52
2018-03-16T00:40:28.863Z,91.52
2018-03-16T00:42:56.642Z,91.26
2018-03-16T00:45:24.297Z,91.42
2018-03-16T00:47:51.941Z,91.30
2018-03-16T00:50:19.716Z,91.43
2018-03-16T00:52:47.337Z,90.93
2018-03-16T00:55:15.014Z,90.53
2018-03-16T00:57:42.792Z,91.29
2018-03-16T01:00:10.568Z,90.79
2018-03-16T01:02:38.239Z,91.25
2018-03-16T01:05:05.961Z,90.55
2018-03-16T01:07:33.652Z,90.89
2018-03-16T01:10:01.263Z,90.36
2018-03-16T01:12:28.945Z,90.46
2018-03-16T01:14:56.609Z,90.68
2018-03-16T01:17:24.402Z,91.34
2018-03-16T01:19:52.182Z,90.27
2018-03-16T01:22:19.840Z,90.79
2018-03-16T01:24:47.485Z,90.64
2018-03-16T01:27:15.072Z,91.24
2018-03-16T01:29:42.767Z,90.53
2018-03-16T01:32:10.411Z,90.18
2018-03-16T01:34:38.141Z,90.52
2018-03-16T01:37:05.908Z,89.93
2018-03-16T01:39:33.742Z,90.60
2018-03-16T01:42:01.566Z,90.84
2018-03-16T01:44:29.229Z,90.30
2018-03-16T01:46:56.873Z,90.76
2018-03-16T01:49:24.483Z,91.14
2018-03-16T01:51:52.154Z,90.59
2018-03-16T01:54:19.768Z,91.37
2018-03-16T01:56:47.519Z,92.82
2018-03-16T01:59:15.179Z,92.61
2018-03-16T02:01:42.968Z,92.77
2018-03-16T02:04:10.753Z,93.09
2018-03-16T02:06:38.513Z,94.03
2018-03-16T02:09:06.204Z,94.23
2018-03-16T02:11:33.865Z,95.33
2018-03-16T02:14:01.559Z,95.21
2018-03-16T02:16:29.149Z,95.13
2018-03-16T02:18:56.903Z,94.85
2018-03-16T02:21:24.686Z,94.38
2018-03-16T02:23:52.283Z,95.12
2018-03-16T02:26:20.136Z,94.94
2018-03-16T02:28:47.814Z,94.88
2018-03-16T02:31:15.399Z,94.56
2018-03-16T02:33:43.026Z,94.75
2018-03-16T02:36:10.720Z,94.55
2018-03-16T02:38:38.496Z,95.02
2018-03-16T02:41:06.155Z,95.43
2018-03-16T02:43:33.856Z,95.27
2018-03-16T02:46:01.614Z,95.46
2018-03-16T02:48:29.318Z,95.45
2018-03-16T02:50:56.989Z,95.48
2018-03-16T02:53:24.978Z,95.16
2018-03-16T02:55:52.571Z,95.68
2018-03-16T02:58:20.217Z,95.53
2018-03-16T03:00:47.900Z,95.46
2018-03-16T03:03:15.528Z,96.18
2018-03-16T03:05:43.344Z,95.01
2018-03-16T03:08:11.127Z,95.13
2018-03-16T03:10:38.913Z,94.70
2018-03-16T03:13:06.583Z,95.14
2018-03-16T03:15:34.307Z,95.00
2018-03-16T03:18:02.000Z,94.35
2018-03-16T03:20:29.608Z,94.18
2018-03-16T03:22:57.389Z,94.34
2018-03-16T03:25:25.153Z,94.41
2018-03-16T03:27:52.786Z,94.38
2018-03-16T03:30:20.379Z,93.74
2018-03-16T03:32:48.194Z,93.51
2018-03-16T03:35:15.878Z,93.46
2018-03-16T03:37:43.541Z,93.61
2018-03-16T03:40:11.215Z,92.65
2018-03-16T03:42:38.840Z,93.39
2018-03-16T03:45:06.573Z,93.72
2018-03-16T03:47:34.323Z,92.84
2018-03-16T03:50:02.023Z,92.55
2018-03-16T03:52:29.686Z,93.17
2018-03-16T03:54:57.373Z,93.22
2018-03-16T03:57:24.998Z,92.63
2018-03-16T03:59:52.609Z,92.76
2018-03-16T04:02:20.206Z,92.77
2018-03-16T04:04:47.870Z,92.85
2018-03-16T04:07:15.481Z,93.15
2018-03-16T04:09:43.201Z,92.94
2018-03-16T04:12:10.966Z,93.18
2018-03-16T04:14:38.878Z,92.64
2018-03-16T04:17:06.657Z,92.71
2018-03-16T04:19:34.296Z,92.38
2018-03-16T04:22:01.996Z,93.18
2018-03-16T04:24:29.588Z,92.97
2018-03-16T04:26:57.250Z,94.03
2018-03-16T04:29:24.839Z,93.54
2018-03-16T04:31:52.613Z,94.09
2018-03-16T04:34:20.386Z,94.13
2018-03-16T04:36:48.055Z,94.66
2018-03-16T04:39:15.830Z,94.94
2018-03-16T04:41:43.515Z,94.97
2018-03-16T04:44:11.271Z,95.13
2018-03-16T04:46:39.040Z,95.89
2018-03-16T04:49:06.631Z,96.28
2018-03-16T04:51:34.208Z,95.26
2018-03-16T04:54:01.893Z,95.27
2018-03-16T04:56:29.669Z,95.18
2018-03-16T04:58:57.261Z,96.28
2018-03-16T05:01:25.018Z,96.13
2018-03-16T05:03:52.756Z,95.62
2018-03-16T05:06:20.474Z,95.22
2018-03-16T05:08:48.353Z,94.60
2018-03-16T05:11:16.582Z,94.65
2018-03-16T05:13:44.228Z,95.16
2018-03-16T05:16:11.876Z,95.10
2018-03-16T05:18:39.560Z,96.27
2018-03-16T05:21:07.156Z,96.08
2018-03-16T05:23:34.859Z,96.16
2018-03-16T05:26:02.517Z,96.54
2018-03-16T05:28:30.270Z,96.37
2018-03-16T05:30:58.052Z,96.49
2018-03-16T05:33:26.101Z,97.23
2018-03-16T05:35:53.913Z,97.02
2018-03-16T05:38:21.694Z,96.76
2018-03-16T05:40:49.452Z,97.73
2018-03-16T05:43:17.059Z,98.42
2018-03-16T05:45:44.816Z,98.87
2018-03-16T05:48:12.549Z,98.70
2018-03-16T05:50:40.367Z,98.94
2018-03-16T05:53:08.355Z,99.26
2018-03-16T05:55:36.041Z,99.94
2018-03-16T05:58:03.803Z,99.94
2018-03-16T06:00:31.440Z,99.64
2018-03-16T06:02:59.164Z,100.00
2018-03-16T06:05:26.839Z,100.00
2018-03-16T06:07:54.499Z,100.00
2018-03-16T06:10:22.296Z,100.00
2018-03-16T06:12:49.906Z,100.00
2018-03-16T06:15:17.628Z,100.00
2018-03-16T06:17:45.243Z,100.00
2018-03-16T06:20:12.839Z,100.00
2018-03-16T06:22:40.630Z,100.00
2018-03-16T06:25:08.235Z,100.00
2018-03-16T06:27:35.918Z,100.00
2018-03-16T06:30:03.800Z,100.00
2018-03-16T06:32:31.380Z,100.00
2018-03-16T06:34:59.153Z,100.00
2018-03-16T06:37:26.928Z,100.00
2018-03-16T06:39:54.599Z,100.00
2018-03-16T06:42:22.383Z,100.00
2018-03-16T06:44:50.259Z,100.00
2018-03-16T06:47:17.935Z,100.00
2018-03-16T06:49:45.686Z,100.00
2018-03-16T06:52:13.347Z,100.00
2018-03-16T06:54:41.054Z,100.00
2018-03-16T06:57:08.636Z,100.00
2018-03-16T06:59:36.377Z,100.00
2018-03-16T07:02:04.089Z,100.00
2018-03-16T07:04:31.977Z,100.00
2018-03-16T07:06:59.564Z,100.00
2018-03-16T07:09:27.155Z,100.00
2018-03-16T07:11:54.806Z,100.00
2018-03-16T07:14:22.399Z,100.00
2018-03-16T07:16:50.115Z,100.00
2018-03-16T07:19:17.822Z,100.00
2018-03-16T07:21:45.600Z,100.00
2018-03-16T07:24:13.377Z,100.00
2018-03-16T07:26:41.264Z,100.00
2018-03-16T07:29:09.035Z,100.00
2018-03-16T07:31:36.629Z,100.00
2018-03-16T07:34:04.376Z,100.00
2018-03-16T07:36:31.979Z,100.00
2018-03-16T07:38:59.648Z,100.00
2018-03-16T07:41:27.523Z,100.00
2018-03-16T07:43:55.115Z,100.00
2018-03-16T07:46:22.873Z,100.00
2018-03-16T07:48:50.602Z,100.00
2018-03-16T07:51:18.204Z,100.00
2018-03-16T07:53:45.958Z,100.00
2018-03-16T07:56:13.658Z,100.00
2018-03-16T07:58:41.393Z,100.00
2018-03-16T08:01:09.229Z,100.00
2018-03-16T08:03:37.007Z,100.00
2018-03-16T08:06:04.626Z,100.00
2018-03-16T08:08:32.446Z,100.00
2018-03-16T08:11:00.242Z,100.00
2018-03-16T08:13:28.015Z,100.00
2018-03-16T08:15:55.657Z,100.00
2018-03-16T08:18:23.366Z,100.00
2018-03-16T08:20:51.090Z,100.00
2018-03-16T08:23:18.926Z,100.00
2018-03-16T08:25:46.524Z,100.00
2018-03-16T08:28:15.227Z,100.00
2018-03-16T08:30:42.957Z,100.00
2018-03-16T08:33:10.640Z,100.00
2018-03-16T08:35:38.252Z,100.00
2018-03-16T08:38:05.999Z,100.00
2018-03-16T08:40:33.657Z,100.00
2018-03-16T08:43:01.415Z,100.00
2018-03-16T08:45:29.235Z,100.00
2018-03-16T08:47:56.887Z,100.00
2018-03-16T08:50:24.687Z,100.00
2018-03-16T08:52:52.271Z,100.00
2018-03-16T08:55:19.890Z,100.00
2018-03-16T08:57:47.707Z,100.00
2018-03-16T09:00:15.490Z,100.00
2018-03-16T09:02:43.152Z,100.00
2018-03-16T09:05:10.737Z,100.00
2018-03-16T09:07:38.349Z,100.00
2018-03-16T09:10:06.085Z,100.00
2018-03-16T09:12:33.795Z,100.00
2018-03-16T09:15:01.438Z,100.00
2018-03-16T09:17:29.111Z,100.00
2018-03-16T09:19:56.710Z,100.00
2018-03-16T09:22:24.359Z,100.00
2018-03-16T09:24:52.027Z,100.00
2018-03-16T09:27:19.701Z,100.00
2018-03-16T09:29:47.504Z,100.00
2018-03-16T09:32:15.373Z,100.00
2018-03-16T09:34:43.147Z,100.00
2018-03-16T09:37:10.927Z,100.00
2018-03-16T09:39:38.603Z,100.00
2018-03-16T09:42:06.213Z,100.00
2018-03-16T09:44:33.944Z,100.00
2018-03-16T09:47:01.622Z,100.00
2018-03-16T09:49:29.410Z,100.00
2018-03-16T09:51:57.188Z,100.00
2018-03-16T09:54:24.836Z,100.00
2018-03-16T09:56:52.642Z,100.00
2018-03-16T09:59:20.315Z,100.00
2018-03-16T10:01:47.979Z,100.00
2018-03-16T10:04:15.767Z,100.00
2018-03-16T10:06:43.389Z,100.00
2018-03-16T10:09:11.219Z,100.00
2018-03-16T10:11:39.001Z,100.00
2018-03-16T10:14:06.643Z,100.00
2018-03-16T10:16:34.454Z,100.00
2018-03-16T10:19:02.041Z,100.00
2018-03-16T10:21:29.806Z,100.00
2018-03-16T10:23:57.481Z,100.00
2018-03-16T10:26:25.258Z,100.00
2018-03-16T10:28:52.832Z,100.00
2018-03-16T10:31:20.472Z,100.00
2018-03-16T10:33:48.285Z,100.00
2018-03-16T10:36:15.861Z,100.00
2018-03-16T10:38:43.527Z,100.00
2018-03-16T10:41:11.414Z,100.00
2018-03-16T10:43:39.092Z,100.00
2018-03-16T10:46:06.832Z,100.00
2018-03-16T10:48:34.464Z,100.00
2018-03-16T10:51:02.161Z,100.00
2018-03-16T10:53:29.755Z,100.00
2018-03-16T10:55:57.466Z,100.00
2018-03-16T10:58:25.251Z,100.00
2018-03-16T11:00:58.563Z,100.00
2018-03-16T11:06:27.700Z,100.00
2018-03-16T11:08:55.362Z,100.00
2018-03-16T11:11:22.955Z,100.00
2018-03-16T11:13:50.590Z,100.00
2018-03-16T11:16:18.400Z,100.00
2018-03-16T11:18:46.072Z,100.00
2018-03-16T11:21:13.911Z,100.00
2018-03-16T11:23:41.707Z,100.00
2018-03-16T11:26:09.294Z,100.00
2018-03-16T11:28:36.968Z,100.00
2018-03-16T11:31:04.549Z,100.00
2018-03-16T11:33:32.152Z,100.00
2018-03-16T11:35:59.861Z,100.00
2018-03-16T11:38:27.566Z,100.00
2018-03-16T11:40:55.357Z,100.00
2018-03-16T11:43:22.975Z,100.00
2018-03-16T11:45:50.814Z,100.00
2018-03-16T11:48:18.540Z,100.00
2018-03-16T11:50:46.259Z,100.00
2018-03-16T11:53:13.885Z,100.00
2018-03-16T11:55:41.524Z,100.00
2018-03-16T11:58:09.114Z,100.00
2018-03-16T12:00:36.696Z,100.00
2018-03-16T12:03:04.431Z,100.00
2018-03-16T12:05:32.326Z,100.00
2018-03-16T12:07:59.981Z,100.00
2018-03-16T12:10:27.575Z,100.00
2018-03-16T12:12:55.217Z,100.00
2018-03-16T12:15:22.972Z,100.00
2018-03-16T12:17:50.639Z,99.32
2018-03-16T12:20:18.365Z,98.55
2018-03-16T12:22:45.980Z,98.71
2018-03-16T12:25:13.661Z,99.08
2018-03-16T12:27:41.260Z,98.42
2018-03-16T12:30:08.971Z,98.06
2018-03-16T12:32:36.649Z,98.18
2018-03-16T12:35:04.528Z,98.39
2018-03-16T12:37:32.305Z,98.67
2018-03-16T12:40:00.074Z,97.28
2018-03-16T12:42:27.699Z,96.43
2018-03-16T12:44:55.287Z,95.80
2018-03-16T12:47:23.111Z,96.74
2018-03-16T12:49:50.782Z,96.21
2018-03-16T12:52:18.664Z,95.16
2018-03-16T12:54:46.253Z,95.46
2018-03-16T12:57:13.974Z,94.91
2018-03-16T12:59:41.769Z,95.27
2018-03-16T13:02:09.374Z,94.79
2018-03-16T13:04:36.958Z,94.72
2018-03-16T13:07:04.591Z,95.42
2018-03-16T13:09:32.392Z,95.43
2018-03-16T13:12:00.070Z,94.91
2018-03-16T13:14:27.728Z,95.08
2018-03-16T13:16:55.404Z,95.35
2018-03-16T13:19:23.019Z,94.96
2018-03-16T13:21:50.600Z,95.23
2018-03-16T13:24:18.206Z,95.70
2018-03-16T13:26:46.002Z,94.65
2018-03-16T13:29:13.680Z,93.35
2018-03-16T13:31:41.527Z,93.00
2018-03-16T13:34:09.351Z,92.68
2018-03-16T13:36:37.088Z,92.73
2018-03-16T13:39:05.008Z,92.73
2018-03-16T13:41:32.992Z,93.13
2018-03-16T13:44:00.645Z,92.27
2018-03-16T13:46:28.336Z,92.58
2018-03-16T13:48:56.026Z,92.27
2018-03-16T13:51:23.689Z,91.35
2018-03-16T13:53:51.436Z,91.16
2018-03-16T13:56:19.247Z,90.42
2018-03-16T13:58:47.025Z,91.78
2018-03-16T14:01:14.680Z,91.86
2018-03-16T14:03:42.376Z,91.75
2018-03-16T14:06:10.040Z,91.93
2018-03-16T14:08:37.828Z,91.43
2018-03-16T14:11:05.413Z,91.92
2018-03-16T14:13:33.173Z,90.92
2018-03-16T14:16:00.834Z,90.77
2018-03-16T14:18:28.634Z,90.40
2018-03-16T14:20:56.612Z,91.28
2018-03-16T14:23:24.372Z,90.78
2018-03-16T14:25:52.009Z,91.00
2018-03-16T14:28:19.639Z,90.94
2018-03-16T14:30:47.325Z,91.12
2018-03-16T14:33:14.993Z,91.47
2018-03-16T14:35:42.768Z,91.13
2018-03-16T14:38:10.492Z,90.79
2018-03-16T14:40:38.190Z,91.18
2018-03-16T14:43:06.004Z,90.95
2018-03-16T14:45:33.772Z,90.19
2018-03-16T14:48:01.370Z,90.85
2018-03-16T14:50:28.959Z,90.69
2018-03-16T14:52:56.807Z,90.40
2018-03-16T14:55:24.466Z,90.15
2018-03-16T14:57:52.159Z,90.16
2018-03-16T15:00:19.895Z,90.24
2018-03-16T15:02:47.712Z,89.38
2018-03-16T15:05:15.289Z,89.48
2018-03-16T15:07:42.940Z,89.26
2018-03-16T15:10:11.046Z,88.38
2018-03-16T15:12:38.615Z,89.02
2018-03-16T15:15:06.396Z,89.17
2018-03-16T15:17:34.021Z,87.81
2018-03-16T15:20:01.848Z,88.60
2018-03-16T15:22:29.618Z,88.33
2018-03-16T15:24:57.510Z,87.93
2018-03-16T15:27:25.184Z,88.30
2018-03-16T15:29:53.014Z,88.74
2018-03-16T15:32:20.850Z,88.34
2018-03-16T15:34:48.434Z,87.74
2018-03-16T15:37:16.298Z,87.43
2018-03-16T15:39:43.970Z,87.02
2018-03-16T15:42:11.751Z,86.84
2018-03-16T15:44:40.160Z,85.91
2018-03-16T15:47:07.807Z,85.77
2018-03-16T15:49:35.703Z,86.49
2018-03-16T15:52:03.276Z,86.09
2018-03-16T15:54:30.894Z,86.91
2018-03-16T15:56:58.724Z,87.19
2018-03-16T15:59:26.389Z,86.59
2018-03-16T16:01:53.973Z,86.75
2018-03-16T16:04:21.854Z,86.81
2018-03-16T16:06:49.636Z,87.38
2018-03-16T16:09:17.398Z,86.99
2018-03-16T16:11:45.006Z,87.68
2018-03-16T16:14:12.656Z,86.79
2018-03-16T16:16:40.307Z,86.49
2018-03-16T16:19:08.112Z,86.59
2018-03-16T16:21:35.690Z,86.55
2018-03-16T16:24:03.347Z,87.43
2018-03-16T16:26:31.024Z,88.93
2018-03-16T16:28:58.749Z,89.21
2018-03-16T16:31:26.387Z,89.19
2018-03-16T16:33:54.059Z,88.88
2018-03-16T16:36:21.634Z,88.52
2018-03-16T16:38:49.309Z,88.94
2018-03-16T16:41:17.092Z,88.53
2018-03-16T16:43:44.869Z,88.74
2018-03-16T16:46:12.497Z,88.60
2018-03-16T16:48:40.105Z,88.86
2018-03-16T16:51:07.694Z,88.92
2018-03-16T16:53:35.364Z,88.72
2018-03-16T16:56:03.038Z,88.39
2018-03-16T16:58:30.701Z,88.61
2018-03-16T17:00:58.490Z,88.60
2018-03-16T17:03:26.167Z,88.29
2018-03-16T17:05:53.936Z,87.60
2018-03-16T17:08:21.724Z,87.62
2018-03-16T17:10:49.399Z,87.73
2018-03-16T17:13:16.978Z,88.18
2018-03-16T17:15:44.752Z,88.80
2018-03-16T17:18:12.433Z,89.48
2018-03-16T17:20:40.091Z,90.21
2018-03-16T17:23:07.882Z,90.66
2018-03-16T17:25:35.551Z,91.23
2018-03-16T17:28:03.141Z,90.83
2018-03-16T17:30:30.787Z,90.63
2018-03-16T17:32:58.683Z,89.72
2018-03-16T17:35:26.460Z,89.89
2018-03-16T17:37:54.067Z,89.93
2018-03-16T17:40:21.916Z,90.20
2018-03-16T17:42:49.567Z,90.76
2018-03-16T17:45:17.200Z,91.34
2018-03-16T17:47:44.838Z,90.47
2018-03-16T17:50:12.617Z,90.60
2018-03-16T17:52:40.178Z,90.83
2018-03-16T17:55:07.826Z,90.37
2018-03-16T17:57:35.437Z,90.21
2018-03-16T18:00:03.283Z,90.53
2018-03-16T18:02:31.098Z,90.73
2018-03-16T18:04:58.874Z,90.07
2018-03-16T18:07:26.547Z,90.72
2018-03-16T18:09:55.200Z,90.91
2018-03-16T18:12:22.820Z,90.99
2018-03-16T18:14:50.396Z,91.01
2018-03-16T18:17:18.122Z,90.55
2018-03-16T18:19:45.748Z,90.51
2018-03-16T18:22:13.522Z,90.47
2018-03-16T18:24:41.301Z,89.89
2018-03-16T18:27:08.980Z,90.00
2018-03-16T18:29:36.861Z,89.62
2018-03-16T18:32:04.617Z,89.70
2018-03-16T18:34:32.361Z,89.63
2018-03-16T18:36:59.933Z,88.91
2018-03-16T18:39:31.217Z,88.36
2018-03-16T18:42:03.781Z,89.32
2018-03-16T18:44:36.169Z,87.73
2018-03-16T18:47:08.088Z,87.79
2018-03-16T18:49:40.124Z,87.96
2018-03-16T18:52:11.612Z,88.03
2018-03-16T18:54:44.684Z,87.58
2018-03-16T18:57:12.624Z,87.19
2018-03-16T18:59:40.197Z,87.12
2018-03-16T19:02:07.776Z,87.34
2018-03-16T19:04:40.947Z,87.31
2018-03-16T19:07:13.109Z,86.90
2018-03-16T19:09:42.254Z,86.87
2018-03-16T19:12:12.372Z,87.13
2018-03-16T19:14:42.129Z,87.60
2018-03-16T19:17:10.007Z,86.82
2018-03-16T19:19:37.786Z,86.82
2018-03-16T19:22:05.462Z,87.17
2018-03-16T19:24:33.070Z,87.42
2018-03-16T19:27:00.916Z,86.93
2018-03-16T19:29:28.696Z,86.80
2018-03-16T19:31:56.478Z,86.45
2018-03-16T19:34:24.227Z,86.64
2018-03-16T19:36:52.090Z,86.15
2018-03-16T19:39:19.791Z,85.72
2018-03-16T19:41:47.354Z,85.54
2018-03-16T19:44:15.153Z,85.34
2018-03-16T19:46:42.878Z,85.28
2018-03-16T19:49:10.435Z,84.23
2018-03-16T19:51:38.066Z,85.21
2018-03-16T19:54:05.715Z,85.40
2018-03-16T19:56:33.414Z,84.12
2018-03-16T19:59:01.038Z,84.84
2018-03-16T20:01:28.875Z,84.68
2018-03-16T20:03:56.499Z,84.84
2018-03-16T20:06:24.369Z,84.31
2018-03-16T20:08:52.011Z,83.67
2018-03-16T20:11:19.682Z,83.47
2018-03-16T20:13:47.258Z,83.25
2018-03-16T20:16:14.924Z,82.81
2018-03-16T20:18:42.609Z,82.44
2018-03-16T20:21:10.392Z,82.17
2018-03-16T20:23:38.169Z,82.40
2018-03-16T20:26:05.789Z,82.10
2018-03-16T20:28:33.510Z,81.74
2018-03-16T20:31:01.189Z,81.33
2018-03-16T20:33:28.814Z,81.67
2018-03-16T20:35:56.388Z,81.47
2018-03-16T20:38:23.997Z,81.35
2018-03-16T20:40:51.599Z,81.83
2018-03-16T20:43:19.264Z,81.67
2018-03-16T20:45:46.930Z,81.28
2018-03-16T20:48:14.517Z,81.55
2018-03-16T20:50:42.181Z,81.40
2018-03-16T20:53:09.782Z,81.78
2018-03-16T20:55:38.530Z,81.25
2018-03-16T20:58:06.134Z,81.20
2018-03-16T21:00:33.814Z,80.46
2018-03-16T21:03:01.579Z,80.71
2018-03-16T21:05:29.269Z,80.46
2018-03-16T21:07:56.926Z,80.46
2018-03-16T21:10:24.720Z,80.68
2018-03-16T21:12:52.332Z,80.96
2018-03-16T21:15:19.931Z,81.00
2018-03-16T21:17:47.538Z,80.83
2018-03-16T21:20:19.010Z,80.50
2018-03-16T21:22:46.696Z,80.16
2018-03-16T21:25:14.327Z,80.30
2018-03-16T21:27:42.021Z,80.70
2018-03-16T21:30:11.142Z,80.69
2018-03-16T21:32:38.818Z,81.30
2018-03-16T21:35:06.411Z,80.58
2018-03-16T21:37:34.248Z,79.71
2018-03-16T21:40:01.892Z,79.51
2018-03-16T21:42:30.032Z,79.09
2018-03-16T21:45:02.498Z,79.51
2018-03-16T21:47:30.448Z,78.88
2018-03-16T21:49:58.285Z,78.79
2018-03-16T21:52:25.959Z,78.91
2018-03-16T21:54:53.588Z,79.16
2018-03-16T21:57:21.156Z,79.27
2018-03-16T21:59:48.751Z,78.88
2018-03-16T22:02:16.542Z,78.91
2018-03-16T22:04:44.148Z,78.82
2018-03-16T22:07:11.762Z,78.75
2018-03-16T22:09:39.375Z,78.90
2018-03-16T22:12:07.011Z,78.18
2018-03-16T22:14:34.938Z,78.47
2018-03-16T22:17:02.695Z,78.69
2018-03-16T22:19:30.682Z,78.73
2018-03-16T22:21:58.263Z,79.23
2018-03-16T22:24:26.044Z,78.83
2018-03-16T22:26:53.711Z,78.97
2018-03-16T22:29:21.398Z,79.00
2018-03-16T22:31:48.973Z,79.13
2018-03-16T22:34:16.639Z,78.92
2018-03-16T22:36:44.209Z,78.97
2018-03-16T22:39:11.900Z,79.13
2018-03-16T22:41:39.530Z,78.94
2018-03-16T22:44:07.249Z,79.33
2018-03-16T22:46:34.823Z,79.08
2018-03-16T22:49:03.009Z,79.07
2018-03-16T22:51:30.786Z,79.03
2018-03-16T22:53:58.371Z,78.85
2018-03-16T22:56:26.240Z,79.04
2018-03-16T22:58:53.903Z,79.96
2018-03-16T23:01:21.569Z,80.00
2018-03-16T23:03:49.172Z,79.61
2018-03-16T23:06:16.838Z,79.91
2018-03-16T23:08:44.500Z,79.57
2018-03-16T23:11:12.173Z,78.94
2018-03-16T23:13:39.854Z,79.28
2018-03-16T23:16:07.463Z,79.63
2018-03-16T23:18:35.065Z,79.02
2018-03-16T23:21:02.894Z,79.12
2018-03-16T23:23:30.609Z,78.71
2018-03-16T23:25:58.206Z,78.82
2018-03-16T23:28:25.813Z,78.91
2018-03-16T23:30:53.478Z,79.55
2018-03-16T23:33:21.073Z,79.22
2018-03-16T23:35:48.818Z,78.69
2018-03-16T23:38:16.437Z,78.53
2018-03-16T23:40:44.013Z,78.50
2018-03-16T23:43:11.641Z,78.35
2018-03-16T23:45:39.201Z,78.21
2018-03-16T23:48:06.777Z,77.92
2018-03-16T23:50:34.469Z,78.47
2018-03-16T23:53:02.072Z,78.69
2018-03-16T23:55:29.719Z,79.19
2018-03-16T23:57:57.415Z,79.09
